sensor_id;sensor_type;location;lat;lon;timestamp;P1;durP1;ratioP1;P2;durP2;ratioP2
9559;SDS011;4818;50.860;4.648;2022-08-03T00:00:12;3.90;;;0.68;;
9559;SDS011;4818;50.860;4.648;2022-08-03T00:02:41;2.67;;;0.47;;
9559;SDS011;4818;50.860;4.648;2022-08-03T00:05:07;2.38;;;0.40;;
9559;SDS011;4818;50.860;4.648;2022-08-03T00:07:33;2.72;;;0.45;;
9559;SDS011;4818;50.860;4.648;2022-08-03T00:10:00;2.42;;;0.40;;
9559;SDS011;4818;50.860;4.648;2022-08-03T00:12:26;1.50;;;0.40;;
9559;SDS011;4818;50.860;4.648;2022-08-03T00:14:52;3.47;;;0.93;;
9559;SDS011;4818;50.860;4.648;2022-08-03T00:17:18;1.85;;;0.30;;
9559;SDS011;4818;50.860;4.648;2022-08-03T00:19:45;2.47;;;0.60;;
9559;SDS011;4818;50.860;4.648;2022-08-03T00:22:11;3.38;;;0.57;;
9559;SDS011;4818;50.860;4.648;2022-08-03T00:24:37;3.55;;;0.55;;
9559;SDS011;4818;50.860;4.648;2022-08-03T00:27:03;2.00;;;0.45;;
9559;SDS011;4818;50.860;4.648;2022-08-03T00:29:30;3.30;;;0.98;;
9559;SDS011;4818;50.860;4.648;2022-08-03T00:31:59;3.17;;;0.60;;
9559;SDS011;4818;50.860;4.648;2022-08-03T00:34:25;4.03;;;0.70;;
9559;SDS011;4818;50.860;4.648;2022-08-03T00:36:52;2.03;;;0.57;;
9559;SDS011;4818;50.860;4.648;2022-08-03T00:39:18;2.22;;;0.40;;
9559;SDS011;4818;50.860;4.648;2022-08-03T00:41:44;2.92;;;0.50;;
9559;SDS011;4818;50.860;4.648;2022-08-03T00:44:10;4.60;;;0.70;;
9559;SDS011;4818;50.860;4.648;2022-08-03T00:46:37;2.03;;;0.43;;
9559;SDS011;4818;50.860;4.648;2022-08-03T00:49:03;2.42;;;0.60;;
9559;SDS011;4818;50.860;4.648;2022-08-03T00:51:29;3.85;;;0.70;;
9559;SDS011;4818;50.860;4.648;2022-08-03T00:53:56;2.10;;;0.40;;
9559;SDS011;4818;50.860;4.648;2022-08-03T00:56:22;1.63;;;0.40;;
9559;SDS011;4818;50.860;4.648;2022-08-03T00:58:49;2.55;;;0.50;;
9559;SDS011;4818;50.860;4.648;2022-08-03T01:01:16;0.95;;;0.45;;
9559;SDS011;4818;50.860;4.648;2022-08-03T01:03:42;2.53;;;0.50;;
9559;SDS011;4818;50.860;4.648;2022-08-03T01:06:19;5.20;;;0.60;;
9559;SDS011;4818;50.860;4.648;2022-08-03T01:08:48;2.67;;;0.63;;
9559;SDS011;4818;50.860;4.648;2022-08-03T01:13:53;1.83;;;0.40;;
9559;SDS011;4818;50.860;4.648;2022-08-03T01:16:32;3.28;;;0.30;;
9559;SDS011;4818;50.860;4.648;2022-08-03T01:21:31;3.17;;;0.45;;
9559;SDS011;4818;50.860;4.648;2022-08-03T01:31:25;2.13;;;0.40;;
9559;SDS011;4818;50.860;4.648;2022-08-03T01:33:55;1.48;;;0.40;;
9559;SDS011;4818;50.860;4.648;2022-08-03T01:36:23;3.25;;;0.40;;
9559;SDS011;4818;50.860;4.648;2022-08-03T01:38:54;2.00;;;0.30;;
9559;SDS011;4818;50.860;4.648;2022-08-03T01:41:28;3.25;;;0.40;;
9559;SDS011;4818;50.860;4.648;2022-08-03T01:43:54;3.53;;;0.40;;
9559;SDS011;4818;50.860;4.648;2022-08-03T01:46:26;3.58;;;0.52;;
9559;SDS011;4818;50.860;4.648;2022-08-03T01:48:52;1.55;;;0.60;;
9559;SDS011;4818;50.860;4.648;2022-08-03T01:51:19;2.10;;;0.80;;
9559;SDS011;4818;50.860;4.648;2022-08-03T01:53:47;2.95;;;0.70;;
9559;SDS011;4818;50.860;4.648;2022-08-03T01:56:15;3.17;;;0.65;;
9559;SDS011;4818;50.860;4.648;2022-08-03T01:58:42;3.13;;;0.60;;
9559;SDS011;4818;50.860;4.648;2022-08-03T02:01:10;1.55;;;0.85;;
9559;SDS011;4818;50.860;4.648;2022-08-03T02:03:38;1.35;;;0.47;;
9559;SDS011;4818;50.860;4.648;2022-08-03T02:06:08;1.15;;;0.63;;
9559;SDS011;4818;50.860;4.648;2022-08-03T02:08:36;3.47;;;1.00;;
9559;SDS011;4818;50.860;4.648;2022-08-03T02:11:04;5.55;;;0.63;;
9559;SDS011;4818;50.860;4.648;2022-08-03T02:13:32;2.08;;;0.60;;
9559;SDS011;4818;50.860;4.648;2022-08-03T02:15:59;1.85;;;0.55;;
9559;SDS011;4818;50.860;4.648;2022-08-03T02:18:26;4.70;;;0.57;;
9559;SDS011;4818;50.860;4.648;2022-08-03T02:20:53;4.47;;;0.93;;
9559;SDS011;4818;50.860;4.648;2022-08-03T02:23:20;2.58;;;0.50;;
9559;SDS011;4818;50.860;4.648;2022-08-03T02:25:47;2.40;;;0.55;;
9559;SDS011;4818;50.860;4.648;2022-08-03T02:28:16;1.20;;;0.60;;
9559;SDS011;4818;50.860;4.648;2022-08-03T02:30:44;1.63;;;0.63;;
9559;SDS011;4818;50.860;4.648;2022-08-03T02:33:11;1.98;;;0.70;;
9559;SDS011;4818;50.860;4.648;2022-08-03T02:35:39;1.98;;;0.70;;
9559;SDS011;4818;50.860;4.648;2022-08-03T02:38:06;3.25;;;0.70;;
9559;SDS011;4818;50.860;4.648;2022-08-03T02:40:33;5.90;;;0.50;;
9559;SDS011;4818;50.860;4.648;2022-08-03T02:43:01;1.92;;;0.50;;
9559;SDS011;4818;50.860;4.648;2022-08-03T02:45:28;1.90;;;0.47;;
9559;SDS011;4818;50.860;4.648;2022-08-03T02:47:55;4.18;;;0.77;;
9559;SDS011;4818;50.860;4.648;2022-08-03T02:50:23;3.00;;;0.50;;
9559;SDS011;4818;50.860;4.648;2022-08-03T02:52:49;2.13;;;0.47;;
9559;SDS011;4818;50.860;4.648;2022-08-03T02:55:16;2.30;;;0.40;;
9559;SDS011;4818;50.860;4.648;2022-08-03T02:57:46;3.58;;;0.60;;
9559;SDS011;4818;50.860;4.648;2022-08-03T03:00:13;1.95;;;0.50;;
9559;SDS011;4818;50.860;4.648;2022-08-03T03:02:39;6.50;;;0.90;;
9559;SDS011;4818;50.860;4.648;2022-08-03T03:05:09;2.05;;;0.50;;
9559;SDS011;4818;50.860;4.648;2022-08-03T03:07:37;2.92;;;0.55;;
9559;SDS011;4818;50.860;4.648;2022-08-03T03:10:04;3.55;;;0.55;;
9559;SDS011;4818;50.860;4.648;2022-08-03T03:12:30;1.33;;;0.45;;
9559;SDS011;4818;50.860;4.648;2022-08-03T03:14:56;3.05;;;1.02;;
9559;SDS011;4818;50.860;4.648;2022-08-03T03:17:23;2.67;;;0.57;;
9559;SDS011;4818;50.860;4.648;2022-08-03T03:19:49;4.82;;;0.63;;
9559;SDS011;4818;50.860;4.648;2022-08-03T03:22:16;3.08;;;0.47;;
9559;SDS011;4818;50.860;4.648;2022-08-03T03:24:43;1.42;;;0.52;;
9559;SDS011;4818;50.860;4.648;2022-08-03T03:27:12;3.38;;;0.73;;
9559;SDS011;4818;50.860;4.648;2022-08-03T03:29:39;3.50;;;0.50;;
9559;SDS011;4818;50.860;4.648;2022-08-03T03:32:05;2.45;;;0.70;;
9559;SDS011;4818;50.860;4.648;2022-08-03T03:34:32;4.18;;;0.68;;
9559;SDS011;4818;50.860;4.648;2022-08-03T03:36:58;5.65;;;0.60;;
9559;SDS011;4818;50.860;4.648;2022-08-03T03:39:24;4.90;;;0.75;;
9559;SDS011;4818;50.860;4.648;2022-08-03T03:41:51;2.65;;;0.65;;
9559;SDS011;4818;50.860;4.648;2022-08-03T03:44:18;1.73;;;0.63;;
9559;SDS011;4818;50.860;4.648;2022-08-03T03:46:44;4.00;;;0.80;;
9559;SDS011;4818;50.860;4.648;2022-08-03T03:49:11;2.42;;;0.57;;
9559;SDS011;4818;50.860;4.648;2022-08-03T03:51:37;5.82;;;0.60;;
9559;SDS011;4818;50.860;4.648;2022-08-03T03:54:03;3.08;;;0.50;;
9559;SDS011;4818;50.860;4.648;2022-08-03T03:56:32;2.15;;;0.60;;
9559;SDS011;4818;50.860;4.648;2022-08-03T03:58:59;1.08;;;0.50;;
9559;SDS011;4818;50.860;4.648;2022-08-03T04:01:25;1.85;;;0.40;;
9559;SDS011;4818;50.860;4.648;2022-08-03T04:03:52;2.75;;;0.60;;
9559;SDS011;4818;50.860;4.648;2022-08-03T04:06:18;2.70;;;0.98;;
9559;SDS011;4818;50.860;4.648;2022-08-03T04:09:03;4.68;;;0.60;;
9559;SDS011;4818;50.860;4.648;2022-08-03T04:11:54;2.85;;;0.50;;
9559;SDS011;4818;50.860;4.648;2022-08-03T04:14:24;1.23;;;0.45;;
9559;SDS011;4818;50.860;4.648;2022-08-03T04:16:58;5.47;;;0.50;;
9559;SDS011;4818;50.860;4.648;2022-08-03T04:19:46;3.97;;;0.50;;
9559;SDS011;4818;50.860;4.648;2022-08-03T04:22:16;1.73;;;0.50;;
9559;SDS011;4818;50.860;4.648;2022-08-03T04:24:44;2.00;;;0.60;;
9559;SDS011;4818;50.860;4.648;2022-08-03T04:27:13;4.78;;;1.00;;
9559;SDS011;4818;50.860;4.648;2022-08-03T04:29:40;2.05;;;0.47;;
9559;SDS011;4818;50.860;4.648;2022-08-03T04:32:08;1.98;;;0.70;;
9559;SDS011;4818;50.860;4.648;2022-08-03T04:34:36;2.47;;;0.55;;
9559;SDS011;4818;50.860;4.648;2022-08-03T04:37:04;1.55;;;0.50;;
9559;SDS011;4818;50.860;4.648;2022-08-03T04:39:35;5.22;;;0.93;;
9559;SDS011;4818;50.860;4.648;2022-08-03T04:42:03;2.50;;;0.57;;
9559;SDS011;4818;50.860;4.648;2022-08-03T04:44:34;1.23;;;0.50;;
9559;SDS011;4818;50.860;4.648;2022-08-03T04:49:27;3.40;;;0.52;;
9559;SDS011;4818;50.860;4.648;2022-08-03T04:51:54;4.50;;;0.55;;
9559;SDS011;4818;50.860;4.648;2022-08-03T04:54:21;1.20;;;0.40;;
9559;SDS011;4818;50.860;4.648;2022-08-03T04:56:47;2.13;;;0.65;;
9559;SDS011;4818;50.860;4.648;2022-08-03T04:59:14;3.17;;;0.50;;
9559;SDS011;4818;50.860;4.648;2022-08-03T05:01:44;4.55;;;0.63;;
9559;SDS011;4818;50.860;4.648;2022-08-03T05:04:10;2.50;;;0.50;;
9559;SDS011;4818;50.860;4.648;2022-08-03T05:06:36;4.43;;;0.80;;
9559;SDS011;4818;50.860;4.648;2022-08-03T05:09:03;5.22;;;0.63;;
9559;SDS011;4818;50.860;4.648;2022-08-03T05:11:30;1.88;;;0.40;;
9559;SDS011;4818;50.860;4.648;2022-08-03T05:13:59;1.45;;;0.40;;
9559;SDS011;4818;50.860;4.648;2022-08-03T05:16:26;3.63;;;0.30;;
9559;SDS011;4818;50.860;4.648;2022-08-03T05:18:52;1.88;;;0.38;;
9559;SDS011;4818;50.860;4.648;2022-08-03T05:21:21;1.35;;;0.30;;
9559;SDS011;4818;50.860;4.648;2022-08-03T05:23:50;1.45;;;0.50;;
9559;SDS011;4818;50.860;4.648;2022-08-03T05:26:16;3.15;;;0.63;;
9559;SDS011;4818;50.860;4.648;2022-08-03T05:28:43;2.55;;;0.45;;
9559;SDS011;4818;50.860;4.648;2022-08-03T05:31:09;4.57;;;0.50;;
9559;SDS011;4818;50.860;4.648;2022-08-03T05:33:39;3.13;;;0.55;;
9559;SDS011;4818;50.860;4.648;2022-08-03T05:36:07;1.25;;;0.45;;
9559;SDS011;4818;50.860;4.648;2022-08-03T05:38:33;5.15;;;0.77;;
9559;SDS011;4818;50.860;4.648;2022-08-03T05:41:03;9.18;;;1.25;;
9559;SDS011;4818;50.860;4.648;2022-08-03T05:43:30;2.35;;;0.70;;
9559;SDS011;4818;50.860;4.648;2022-08-03T05:45:56;5.63;;;0.50;;
9559;SDS011;4818;50.860;4.648;2022-08-03T05:48:24;4.32;;;0.40;;
9559;SDS011;4818;50.860;4.648;2022-08-03T05:50:56;3.17;;;0.43;;
9559;SDS011;4818;50.860;4.648;2022-08-03T05:53:22;2.08;;;0.43;;
9559;SDS011;4818;50.860;4.648;2022-08-03T05:55:48;2.70;;;0.68;;
9559;SDS011;4818;50.860;4.648;2022-08-03T05:58:15;2.47;;;0.40;;
9559;SDS011;4818;50.860;4.648;2022-08-03T06:00:41;4.15;;;0.40;;
9559;SDS011;4818;50.860;4.648;2022-08-03T06:03:07;3.97;;;0.55;;
9559;SDS011;4818;50.860;4.648;2022-08-03T06:05:36;5.65;;;1.02;;
9559;SDS011;4818;50.860;4.648;2022-08-03T06:08:03;2.13;;;0.40;;
9559;SDS011;4818;50.860;4.648;2022-08-03T06:10:29;2.42;;;0.30;;
9559;SDS011;4818;50.860;4.648;2022-08-03T06:12:55;1.92;;;0.40;;
9559;SDS011;4818;50.860;4.648;2022-08-03T06:15:21;3.58;;;0.50;;
9559;SDS011;4818;50.860;4.648;2022-08-03T06:17:48;1.23;;;0.28;;
9559;SDS011;4818;50.860;4.648;2022-08-03T06:20:16;2.15;;;0.40;;
9559;SDS011;4818;50.860;4.648;2022-08-03T06:22:43;4.03;;;0.50;;
9559;SDS011;4818;50.860;4.648;2022-08-03T06:25:09;1.52;;;0.47;;
9559;SDS011;4818;50.860;4.648;2022-08-03T06:27:35;2.25;;;0.30;;
9559;SDS011;4818;50.860;4.648;2022-08-03T06:30:04;2.55;;;0.50;;
9559;SDS011;4818;50.860;4.648;2022-08-03T06:32:31;3.72;;;0.30;;
9559;SDS011;4818;50.860;4.648;2022-08-03T06:35:00;1.38;;;0.30;;
9559;SDS011;4818;50.860;4.648;2022-08-03T06:37:43;1.50;;;0.30;;
9559;SDS011;4818;50.860;4.648;2022-08-03T06:40:11;2.45;;;0.20;;
9559;SDS011;4818;50.860;4.648;2022-08-03T06:42:41;2.83;;;0.38;;
9559;SDS011;4818;50.860;4.648;2022-08-03T06:45:09;2.85;;;0.30;;
9559;SDS011;4818;50.860;4.648;2022-08-03T06:47:39;2.58;;;0.30;;
9559;SDS011;4818;50.860;4.648;2022-08-03T06:50:09;3.53;;;0.40;;
9559;SDS011;4818;50.860;4.648;2022-08-03T06:52:36;2.60;;;0.30;;
9559;SDS011;4818;50.860;4.648;2022-08-03T06:55:02;1.90;;;0.40;;
9559;SDS011;4818;50.860;4.648;2022-08-03T06:57:28;1.48;;;0.50;;
9559;SDS011;4818;50.860;4.648;2022-08-03T06:59:58;3.50;;;0.32;;
9559;SDS011;4818;50.860;4.648;2022-08-03T07:02:26;0.85;;;0.10;;
9559;SDS011;4818;50.860;4.648;2022-08-03T07:04:53;1.85;;;0.30;;
9559;SDS011;4818;50.860;4.648;2022-08-03T07:07:19;2.35;;;0.40;;
9559;SDS011;4818;50.860;4.648;2022-08-03T07:09:45;2.22;;;0.25;;
9559;SDS011;4818;50.860;4.648;2022-08-03T07:12:14;0.98;;;0.40;;
9559;SDS011;4818;50.860;4.648;2022-08-03T07:14:41;1.50;;;0.35;;
9559;SDS011;4818;50.860;4.648;2022-08-03T07:17:07;1.88;;;0.30;;
9559;SDS011;4818;50.860;4.648;2022-08-03T07:19:33;3.38;;;0.50;;
9559;SDS011;4818;50.860;4.648;2022-08-03T07:22:09;6.00;;;0.47;;
9559;SDS011;4818;50.860;4.648;2022-08-03T07:24:36;1.58;;;0.20;;
9559;SDS011;4818;50.860;4.648;2022-08-03T07:27:02;1.05;;;0.20;;
9559;SDS011;4818;50.860;4.648;2022-08-03T07:29:29;1.38;;;0.30;;
9559;SDS011;4818;50.860;4.648;2022-08-03T07:31:56;1.73;;;0.20;;
9559;SDS011;4818;50.860;4.648;2022-08-03T07:34:22;1.73;;;0.20;;
9559;SDS011;4818;50.860;4.648;2022-08-03T07:36:49;3.15;;;0.30;;
9559;SDS011;4818;50.860;4.648;2022-08-03T07:39:15;2.70;;;0.50;;
9559;SDS011;4818;50.860;4.648;2022-08-03T07:41:42;3.80;;;0.30;;
9559;SDS011;4818;50.860;4.648;2022-08-03T07:44:08;3.40;;;0.32;;
9559;SDS011;4818;50.860;4.648;2022-08-03T07:46:36;3.35;;;0.20;;
9559;SDS011;4818;50.860;4.648;2022-08-03T07:49:02;3.25;;;0.40;;
9559;SDS011;4818;50.860;4.648;2022-08-03T07:51:30;2.08;;;0.30;;
9559;SDS011;4818;50.860;4.648;2022-08-03T07:53:56;5.15;;;0.20;;
9559;SDS011;4818;50.860;4.648;2022-08-03T07:56:25;2.83;;;0.20;;
9559;SDS011;4818;50.860;4.648;2022-08-03T07:58:52;3.58;;;0.50;;
9559;SDS011;4818;50.860;4.648;2022-08-03T08:01:19;4.15;;;0.30;;
9559;SDS011;4818;50.860;4.648;2022-08-03T08:03:45;1.38;;;0.30;;
9559;SDS011;4818;50.860;4.648;2022-08-03T08:06:12;5.60;;;0.40;;
9559;SDS011;4818;50.860;4.648;2022-08-03T08:08:38;4.72;;;0.20;;
9559;SDS011;4818;50.860;4.648;2022-08-03T08:11:05;2.00;;;0.22;;
9559;SDS011;4818;50.860;4.648;2022-08-03T08:31:15;2.78;;;0.25;;
9559;SDS011;4818;50.860;4.648;2022-08-03T08:37:16;2.88;;;0.40;;
9559;SDS011;4818;50.860;4.648;2022-08-03T08:39:42;1.88;;;0.30;;
9559;SDS011;4818;50.860;4.648;2022-08-03T08:42:08;2.63;;;0.28;;
9559;SDS011;4818;50.860;4.648;2022-08-03T08:44:35;3.22;;;0.30;;
9559;SDS011;4818;50.860;4.648;2022-08-03T08:47:02;4.63;;;0.50;;
9559;SDS011;4818;50.860;4.648;2022-08-03T08:49:29;2.97;;;0.35;;
9559;SDS011;4818;50.860;4.648;2022-08-03T08:51:58;3.45;;;0.40;;
9559;SDS011;4818;50.860;4.648;2022-08-03T08:54:24;5.72;;;0.50;;
9559;SDS011;4818;50.860;4.648;2022-08-03T08:56:51;3.83;;;0.52;;
9559;SDS011;4818;50.860;4.648;2022-08-03T08:59:18;4.28;;;0.28;;
9559;SDS011;4818;50.860;4.648;2022-08-03T09:01:48;4.30;;;0.30;;
9559;SDS011;4818;50.860;4.648;2022-08-03T09:04:17;4.35;;;0.30;;
9559;SDS011;4818;50.860;4.648;2022-08-03T09:06:43;4.03;;;0.20;;
9559;SDS011;4818;50.860;4.648;2022-08-03T09:09:10;2.35;;;0.32;;
9559;SDS011;4818;50.860;4.648;2022-08-03T09:11:36;2.10;;;0.20;;
9559;SDS011;4818;50.860;4.648;2022-08-03T09:14:03;3.13;;;0.25;;
9559;SDS011;4818;50.860;4.648;2022-08-03T09:16:29;0.68;;;0.15;;
9559;SDS011;4818;50.860;4.648;2022-08-03T09:18:55;1.30;;;0.20;;
9559;SDS011;4818;50.860;4.648;2022-08-03T09:21:36;1.50;;;0.15;;
9559;SDS011;4818;50.860;4.648;2022-08-03T09:24:03;1.00;;;0.20;;
9559;SDS011;4818;50.860;4.648;2022-08-03T09:26:30;2.53;;;0.30;;
9559;SDS011;4818;50.860;4.648;2022-08-03T09:28:58;1.30;;;0.30;;
9559;SDS011;4818;50.860;4.648;2022-08-03T09:31:34;1.80;;;0.20;;
9559;SDS011;4818;50.860;4.648;2022-08-03T09:36:52;1.50;;;0.20;;
9559;SDS011;4818;50.860;4.648;2022-08-03T09:39:19;1.77;;;0.20;;
9559;SDS011;4818;50.860;4.648;2022-08-03T09:41:47;2.65;;;0.20;;
9559;SDS011;4818;50.860;4.648;2022-08-03T09:44:14;1.15;;;0.20;;
9559;SDS011;4818;50.860;4.648;2022-08-03T09:46:47;2.00;;;0.20;;
9559;SDS011;4818;50.860;4.648;2022-08-03T09:49:14;2.17;;;0.20;;
9559;SDS011;4818;50.860;4.648;2022-08-03T09:51:40;0.68;;;0.10;;
9559;SDS011;4818;50.860;4.648;2022-08-03T09:54:07;1.58;;;0.20;;
9559;SDS011;4818;50.860;4.648;2022-08-03T09:56:40;3.20;;;0.20;;
9559;SDS011;4818;50.860;4.648;2022-08-03T09:59:07;3.35;;;0.20;;
9559;SDS011;4818;50.860;4.648;2022-08-03T10:01:33;1.50;;;0.20;;
9559;SDS011;4818;50.860;4.648;2022-08-03T10:04:00;1.85;;;0.20;;
9559;SDS011;4818;50.860;4.648;2022-08-03T10:06:26;1.25;;;0.10;;
9559;SDS011;4818;50.860;4.648;2022-08-03T10:09:06;3.10;;;0.10;;
9559;SDS011;4818;50.860;4.648;2022-08-03T10:11:33;1.85;;;0.10;;
9559;SDS011;4818;50.860;4.648;2022-08-03T10:14:03;1.23;;;0.10;;
9559;SDS011;4818;50.860;4.648;2022-08-03T10:16:34;0.60;;;0.20;;
9559;SDS011;4818;50.860;4.648;2022-08-03T10:19:01;2.20;;;0.30;;
9559;SDS011;4818;50.860;4.648;2022-08-03T10:21:29;0.98;;;0.10;;
9559;SDS011;4818;50.860;4.648;2022-08-03T10:23:58;6.95;;;0.38;;
9559;SDS011;4818;50.860;4.648;2022-08-03T10:26:24;2.58;;;0.20;;
9559;SDS011;4818;50.860;4.648;2022-08-03T10:28:52;0.52;;;0.10;;
9559;SDS011;4818;50.860;4.648;2022-08-03T10:31:19;0.65;;;0.20;;
9559;SDS011;4818;50.860;4.648;2022-08-03T10:33:49;0.98;;;0.10;;
9559;SDS011;4818;50.860;4.648;2022-08-03T10:36:16;6.13;;;0.30;;
9559;SDS011;4818;50.860;4.648;2022-08-03T10:38:47;0.85;;;0.28;;
9559;SDS011;4818;50.860;4.648;2022-08-03T10:41:21;0.43;;;0.10;;
9559;SDS011;4818;50.860;4.648;2022-08-03T10:46:25;0.77;;;0.20;;
9559;SDS011;4818;50.860;4.648;2022-08-03T10:48:52;2.95;;;0.30;;
9559;SDS011;4818;50.860;4.648;2022-08-03T10:51:20;0.60;;;0.10;;
9559;SDS011;4818;50.860;4.648;2022-08-03T10:53:48;0.73;;;0.10;;
9559;SDS011;4818;50.860;4.648;2022-08-03T10:59:18;1.33;;;0.30;;
9559;SDS011;4818;50.860;4.648;2022-08-03T11:01:49;2.47;;;0.20;;
9559;SDS011;4818;50.860;4.648;2022-08-03T11:04:16;2.05;;;0.20;;
9559;SDS011;4818;50.860;4.648;2022-08-03T11:06:43;2.03;;;0.20;;
9559;SDS011;4818;50.860;4.648;2022-08-03T11:09:14;4.97;;;0.20;;
9559;SDS011;4818;50.860;4.648;2022-08-03T11:11:41;5.38;;;0.20;;
9559;SDS011;4818;50.860;4.648;2022-08-03T11:14:12;2.53;;;0.20;;
9559;SDS011;4818;50.860;4.648;2022-08-03T11:16:46;1.45;;;0.10;;
9559;SDS011;4818;50.860;4.648;2022-08-03T11:19:17;2.35;;;0.20;;
9559;SDS011;4818;50.860;4.648;2022-08-03T11:21:53;1.10;;;0.10;;
9559;SDS011;4818;50.860;4.648;2022-08-03T11:27:19;0.98;;;0.10;;
9559;SDS011;4818;50.860;4.648;2022-08-03T11:29:56;2.30;;;0.10;;
9559;SDS011;4818;50.860;4.648;2022-08-03T11:35:33;1.88;;;0.20;;
9559;SDS011;4818;50.860;4.648;2022-08-03T11:38:04;0.98;;;0.10;;
9559;SDS011;4818;50.860;4.648;2022-08-03T11:40:41;6.30;;;0.30;;
9559;SDS011;4818;50.860;4.648;2022-08-03T11:43:10;2.95;;;0.30;;
9559;SDS011;4818;50.860;4.648;2022-08-03T11:45:59;0.88;;;0.10;;
9559;SDS011;4818;50.860;4.648;2022-08-03T11:48:26;0.70;;;0.10;;
9559;SDS011;4818;50.860;4.648;2022-08-03T11:50:53;3.28;;;0.20;;
9559;SDS011;4818;50.860;4.648;2022-08-03T11:53:19;3.40;;;0.30;;
9559;SDS011;4818;50.860;4.648;2022-08-03T11:55:46;2.25;;;0.30;;
9559;SDS011;4818;50.860;4.648;2022-08-03T11:58:20;1.73;;;0.30;;
9559;SDS011;4818;50.860;4.648;2022-08-03T12:00:46;2.00;;;0.10;;
9559;SDS011;4818;50.860;4.648;2022-08-03T12:03:13;2.00;;;0.20;;
9559;SDS011;4818;50.860;4.648;2022-08-03T12:05:41;0.88;;;0.10;;
9559;SDS011;4818;50.860;4.648;2022-08-03T12:08:08;1.75;;;0.15;;
9559;SDS011;4818;50.860;4.648;2022-08-03T12:10:36;1.20;;;0.17;;
9559;SDS011;4818;50.860;4.648;2022-08-03T12:13:04;3.95;;;0.20;;
9559;SDS011;4818;50.860;4.648;2022-08-03T12:15:33;0.77;;;0.20;;
9559;SDS011;4818;50.860;4.648;2022-08-03T12:18:01;0.60;;;0.10;;
9559;SDS011;4818;50.860;4.648;2022-08-03T12:20:28;1.10;;;0.20;;
9559;SDS011;4818;50.860;4.648;2022-08-03T12:23:00;0.73;;;0.20;;
9559;SDS011;4818;50.860;4.648;2022-08-03T12:25:27;3.42;;;0.20;;
9559;SDS011;4818;50.860;4.648;2022-08-03T12:27:55;0.85;;;0.10;;
9559;SDS011;4818;50.860;4.648;2022-08-03T12:30:30;3.15;;;0.20;;
9559;SDS011;4818;50.860;4.648;2022-08-03T12:32:56;0.65;;;0.20;;
9559;SDS011;4818;50.860;4.648;2022-08-03T12:35:23;1.40;;;0.10;;
9559;SDS011;4818;50.860;4.648;2022-08-03T12:37:50;2.05;;;0.20;;
9559;SDS011;4818;50.860;4.648;2022-08-03T12:40:23;0.40;;;0.10;;
9559;SDS011;4818;50.860;4.648;2022-08-03T12:42:53;0.25;;;0.10;;
9559;SDS011;4818;50.860;4.648;2022-08-03T12:45:23;1.05;;;0.10;;
9559;SDS011;4818;50.860;4.648;2022-08-03T12:47:54;1.75;;;0.15;;
9559;SDS011;4818;50.860;4.648;2022-08-03T12:52:50;0.98;;;0.20;;
9559;SDS011;4818;50.860;4.648;2022-08-03T12:55:20;1.20;;;0.17;;
9559;SDS011;4818;50.860;4.648;2022-08-03T12:57:46;4.22;;;0.20;;
9559;SDS011;4818;50.860;4.648;2022-08-03T13:00:17;3.67;;;0.17;;
9559;SDS011;4818;50.860;4.648;2022-08-03T13:02:43;0.60;;;0.10;;
9559;SDS011;4818;50.860;4.648;2022-08-03T13:05:10;2.72;;;0.22;;
9559;SDS011;4818;50.860;4.648;2022-08-03T13:07:44;1.33;;;0.20;;
9559;SDS011;4818;50.860;4.648;2022-08-03T13:10:11;1.02;;;0.20;;
9559;SDS011;4818;50.860;4.648;2022-08-03T13:12:51;1.02;;;0.20;;
9559;SDS011;4818;50.860;4.648;2022-08-03T13:15:18;1.70;;;0.10;;
9559;SDS011;4818;50.860;4.648;2022-08-03T13:17:44;2.58;;;0.10;;
9559;SDS011;4818;50.860;4.648;2022-08-03T13:20:10;0.57;;;0.20;;
9559;SDS011;4818;50.860;4.648;2022-08-03T13:22:37;0.43;;;0.20;;
9559;SDS011;4818;50.860;4.648;2022-08-03T13:25:03;0.38;;;0.10;;
9559;SDS011;4818;50.860;4.648;2022-08-03T13:27:30;0.80;;;0.10;;
9559;SDS011;4818;50.860;4.648;2022-08-03T13:29:56;2.60;;;0.20;;
9559;SDS011;4818;50.860;4.648;2022-08-03T13:32:23;2.60;;;0.10;;
9559;SDS011;4818;50.860;4.648;2022-08-03T13:34:50;3.45;;;0.20;;
9559;SDS011;4818;50.860;4.648;2022-08-03T13:37:16;0.32;;;0.10;;
9559;SDS011;4818;50.860;4.648;2022-08-03T13:39:43;2.65;;;0.15;;
9559;SDS011;4818;50.860;4.648;2022-08-03T13:42:09;3.28;;;0.20;;
9559;SDS011;4818;50.860;4.648;2022-08-03T13:44:36;0.80;;;0.10;;
9559;SDS011;4818;50.860;4.648;2022-08-03T13:47:03;1.60;;;0.10;;
9559;SDS011;4818;50.860;4.648;2022-08-03T13:49:29;7.85;;;0.38;;
9559;SDS011;4818;50.860;4.648;2022-08-03T13:51:56;2.80;;;0.20;;
9559;SDS011;4818;50.860;4.648;2022-08-03T13:54:22;0.93;;;0.20;;
9559;SDS011;4818;50.860;4.648;2022-08-03T13:56:49;2.35;;;0.28;;
9559;SDS011;4818;50.860;4.648;2022-08-03T13:59:19;1.98;;;0.20;;
9559;SDS011;4818;50.860;4.648;2022-08-03T14:01:46;1.08;;;0.40;;
9559;SDS011;4818;50.860;4.648;2022-08-03T14:04:13;2.15;;;0.10;;
9559;SDS011;4818;50.860;4.648;2022-08-03T14:06:39;0.47;;;0.25;;
9559;SDS011;4818;50.860;4.648;2022-08-03T14:09:05;1.65;;;0.20;;
9559;SDS011;4818;50.860;4.648;2022-08-03T14:11:32;1.05;;;0.13;;
9559;SDS011;4818;50.860;4.648;2022-08-03T14:13:58;2.58;;;0.20;;
9559;SDS011;4818;50.860;4.648;2022-08-03T14:16:24;2.15;;;0.20;;
9559;SDS011;4818;50.860;4.648;2022-08-03T14:18:50;1.20;;;0.20;;
9559;SDS011;4818;50.860;4.648;2022-08-03T14:21:17;1.63;;;0.15;;
9559;SDS011;4818;50.860;4.648;2022-08-03T14:23:43;0.90;;;0.13;;
9559;SDS011;4818;50.860;4.648;2022-08-03T14:26:09;0.93;;;0.10;;
9559;SDS011;4818;50.860;4.648;2022-08-03T14:28:36;1.02;;;0.20;;
9559;SDS011;4818;50.860;4.648;2022-08-03T14:31:03;3.33;;;0.40;;
9559;SDS011;4818;50.860;4.648;2022-08-03T14:33:29;3.80;;;0.40;;
9559;SDS011;4818;50.860;4.648;2022-08-03T14:35:55;0.50;;;0.20;;
9559;SDS011;4818;50.860;4.648;2022-08-03T14:38:22;1.30;;;0.10;;
9559;SDS011;4818;50.860;4.648;2022-08-03T14:40:51;2.15;;;0.20;;
9559;SDS011;4818;50.860;4.648;2022-08-03T14:43:20;2.25;;;0.17;;
9559;SDS011;4818;50.860;4.648;2022-08-03T14:45:49;3.17;;;0.20;;
9559;SDS011;4818;50.860;4.648;2022-08-03T14:48:22;0.57;;;0.10;;
9559;SDS011;4818;50.860;4.648;2022-08-03T14:50:50;2.40;;;0.10;;
9559;SDS011;4818;50.860;4.648;2022-08-03T14:55:45;1.25;;;0.20;;
9559;SDS011;4818;50.860;4.648;2022-08-03T14:58:13;0.80;;;0.10;;
9559;SDS011;4818;50.860;4.648;2022-08-03T15:00:46;0.65;;;0.15;;
9559;SDS011;4818;50.860;4.648;2022-08-03T15:03:12;0.20;;;0.00;;
9559;SDS011;4818;50.860;4.648;2022-08-03T15:05:44;2.20;;;0.10;;
9559;SDS011;4818;50.860;4.648;2022-08-03T15:11:28;1.35;;;0.10;;
9559;SDS011;4818;50.860;4.648;2022-08-03T15:14:02;1.50;;;0.20;;
9559;SDS011;4818;50.860;4.648;2022-08-03T15:16:32;0.63;;;0.20;;
9559;SDS011;4818;50.860;4.648;2022-08-03T15:19:12;0.65;;;0.10;;
9559;SDS011;4818;50.860;4.648;2022-08-03T15:25:49;2.95;;;0.30;;
9559;SDS011;4818;50.860;4.648;2022-08-03T15:28:53;1.73;;;0.10;;
9559;SDS011;4818;50.860;4.648;2022-08-03T15:32:33;1.85;;;0.20;;
9559;SDS011;4818;50.860;4.648;2022-08-03T15:35:32;4.70;;;0.30;;
9559;SDS011;4818;50.860;4.648;2022-08-03T15:38:17;0.88;;;0.10;;
9559;SDS011;4818;50.860;4.648;2022-08-03T15:41:28;0.55;;;0.10;;
9559;SDS011;4818;50.860;4.648;2022-08-03T15:43:54;2.13;;;0.28;;
9559;SDS011;4818;50.860;4.648;2022-08-03T15:46:21;1.50;;;0.10;;
9559;SDS011;4818;50.860;4.648;2022-08-03T15:48:47;0.80;;;0.10;;
9559;SDS011;4818;50.860;4.648;2022-08-03T15:51:13;1.85;;;0.10;;
9559;SDS011;4818;50.860;4.648;2022-08-03T15:53:40;3.90;;;0.28;;
9559;SDS011;4818;50.860;4.648;2022-08-03T15:56:06;0.32;;;0.10;;
9559;SDS011;4818;50.860;4.648;2022-08-03T15:59:06;0.57;;;0.10;;
9559;SDS011;4818;50.860;4.648;2022-08-03T16:01:40;1.38;;;0.13;;
9559;SDS011;4818;50.860;4.648;2022-08-03T16:04:07;1.23;;;0.22;;
9559;SDS011;4818;50.860;4.648;2022-08-03T16:06:33;1.33;;;0.20;;
9559;SDS011;4818;50.860;4.648;2022-08-03T16:09:05;1.95;;;0.10;;
9559;SDS011;4818;50.860;4.648;2022-08-03T16:11:41;0.95;;;0.10;;
9559;SDS011;4818;50.860;4.648;2022-08-03T16:14:54;0.55;;;0.10;;
9559;SDS011;4818;50.860;4.648;2022-08-03T16:17:33;1.98;;;0.20;;
9559;SDS011;4818;50.860;4.648;2022-08-03T16:19:59;0.75;;;0.17;;
9559;SDS011;4818;50.860;4.648;2022-08-03T16:22:29;1.70;;;0.20;;
9559;SDS011;4818;50.860;4.648;2022-08-03T16:25:00;1.38;;;0.08;;
9559;SDS011;4818;50.860;4.648;2022-08-03T16:27:26;0.80;;;0.38;;